sensor_id;sensor_type;location;lat;lon;timestamp;temperature;humidity
79014;DHT22;68419;44.714;37.756;2023-03-31T00:00:11;24.02;33.52
79014;DHT22;68419;44.714;37.756;2023-03-31T00:01:14;24.01;33.52
79014;DHT22;68419;44.714;37.756;2023-03-31T00:02:16;23.99;33.57
79014;DHT22;68419;44.714;37.756;2023-03-31T00:03:21;24.00;33.57
79014;DHT22;68419;44.714;37.756;2023-03-31T00:04:23;23.97;33.60
79014;DHT22;68419;44.714;37.756;2023-03-31T00:05:26;23.98;33.62
79014;DHT22;68419;44.714;37.756;2023-03-31T00:06:27;23.99;33.57
79014;DHT22;68419;44.714;37.756;2023-03-31T00:07:29;24.00;33.54
79014;DHT22;68419;44.714;37.756;2023-03-31T00:08:31;24.00;33.54
79014;DHT22;68419;44.714;37.756;2023-03-31T00:09:35;24.01;33.47
79014;DHT22;68419;44.714;37.756;2023-03-31T00:10:36;24.00;33.58
79014;DHT22;68419;44.714;37.756;2023-03-31T00:11:38;23.99;33.60
79014;DHT22;68419;44.714;37.756;2023-03-31T00:12:40;24.00;33.55
79014;DHT22;68419;44.714;37.756;2023-03-31T00:13:41;23.98;33.52
79014;DHT22;68419;44.714;37.756;2023-03-31T00:14:43;23.98;33.55
79014;DHT22;68419;44.714;37.756;2023-03-31T00:15:44;23.98;33.60
79014;DHT22;68419;44.714;37.756;2023-03-31T00:16:46;23.97;33.63
79014;DHT22;68419;44.714;37.756;2023-03-31T00:17:47;23.97;33.58
79014;DHT22;68419;44.714;37.756;2023-03-31T00:18:48;23.97;33.67
79014;DHT22;68419;44.714;37.756;2023-03-31T00:19:50;23.99;33.60
79014;DHT22;68419;44.714;37.756;2023-03-31T00:20:53;23.99;33.53
79014;DHT22;68419;44.714;37.756;2023-03-31T00:21:54;24.00;33.51
79014;DHT22;68419;44.714;37.756;2023-03-31T00:22:56;24.01;33.54
79014;DHT22;68419;44.714;37.756;2023-03-31T00:24:02;23.99;33.56
79014;DHT22;68419;44.714;37.756;2023-03-31T00:25:05;23.98;33.57
79014;DHT22;68419;44.714;37.756;2023-03-31T00:26:06;23.97;33.59
79014;DHT22;68419;44.714;37.756;2023-03-31T00:27:08;23.98;33.54
79014;DHT22;68419;44.714;37.756;2023-03-31T00:28:09;23.98;33.59
79014;DHT22;68419;44.714;37.756;2023-03-31T00:29:12;23.98;33.50
79014;DHT22;68419;44.714;37.756;2023-03-31T00:30:14;23.99;33.52
79014;DHT22;68419;44.714;37.756;2023-03-31T00:31:16;24.00;33.56
79014;DHT22;68419;44.714;37.756;2023-03-31T00:32:17;24.01;33.54
79014;DHT22;68419;44.714;37.756;2023-03-31T00:33:19;24.00;33.50
79014;DHT22;68419;44.714;37.756;2023-03-31T00:34:21;23.99;33.56
79014;DHT22;68419;44.714;37.756;2023-03-31T00:35:22;23.97;33.58
79014;DHT22;68419;44.714;37.756;2023-03-31T00:36:24;23.97;33.57
79014;DHT22;68419;44.714;37.756;2023-03-31T00:37:29;23.97;33.58
79014;DHT22;68419;44.714;37.756;2023-03-31T00:38:31;23.99;33.54
79014;DHT22;68419;44.714;37.756;2023-03-31T00:39:33;23.98;33.56
79014;DHT22;68419;44.714;37.756;2023-03-31T00:40:35;23.97;33.57
79014;DHT22;68419;44.714;37.756;2023-03-31T00:41:38;23.97;33.65
79014;DHT22;68419;44.714;37.756;2023-03-31T00:42:40;23.95;33.57
79014;DHT22;68419;44.714;37.756;2023-03-31T00:44:15;23.97;33.54
79014;DHT22;68419;44.714;37.756;2023-03-31T00:45:29;23.98;33.51
79014;DHT22;68419;44.714;37.756;2023-03-31T00:46:58;23.96;33.61
79014;DHT22;68419;44.714;37.756;2023-03-31T00:48:07;23.96;33.63
79014;DHT22;68419;44.714;37.756;2023-03-31T00:50:56;23.94;33.66
79014;DHT22;68419;44.714;37.756;2023-03-31T00:52:24;23.95;33.67
79014;DHT22;68419;44.714;37.756;2023-03-31T00:53:30;23.96;33.57
79014;DHT22;68419;44.714;37.756;2023-03-31T00:54:33;23.95;33.60
79014;DHT22;68419;44.714;37.756;2023-03-31T00:55:43;23.94;33.67
79014;DHT22;68419;44.714;37.756;2023-03-31T00:56:47;23.92;33.69
79014;DHT22;68419;44.714;37.756;2023-03-31T00:57:50;23.91;33.66
79014;DHT22;68419;44.714;37.756;2023-03-31T00:58:56;23.90;33.69
79014;DHT22;68419;44.714;37.756;2023-03-31T01:00:03;23.91;33.64
79014;DHT22;68419;44.714;37.756;2023-03-31T01:01:19;23.92;33.70
79014;DHT22;68419;44.714;37.756;2023-03-31T01:02:24;23.92;33.62
79014;DHT22;68419;44.714;37.756;2023-03-31T01:03:26;23.92;33.62
79014;DHT22;68419;44.714;37.756;2023-03-31T01:04:32;23.91;33.61
79014;DHT22;68419;44.714;37.756;2023-03-31T01:05:45;23.91;33.67
79014;DHT22;68419;44.714;37.756;2023-03-31T01:07:02;23.91;33.65
79014;DHT22;68419;44.714;37.756;2023-03-31T01:08:05;23.92;33.60
79014;DHT22;68419;44.714;37.756;2023-03-31T01:09:07;23.94;33.58
79014;DHT22;68419;44.714;37.756;2023-03-31T01:10:09;23.97;33.63
79014;DHT22;68419;44.714;37.756;2023-03-31T01:11:13;23.92;33.63
79014;DHT22;68419;44.714;37.756;2023-03-31T01:12:17;23.91;33.71
79014;DHT22;68419;44.714;37.756;2023-03-31T01:13:19;23.89;33.73
79014;DHT22;68419;44.714;37.756;2023-03-31T01:14:21;23.88;33.73
79014;DHT22;68419;44.714;37.756;2023-03-31T01:15:22;23.90;33.70
79014;DHT22;68419;44.714;37.756;2023-03-31T01:16:24;23.91;33.71
79014;DHT22;68419;44.714;37.756;2023-03-31T01:17:25;23.90;33.71
79014;DHT22;68419;44.714;37.756;2023-03-31T01:18:29;23.89;33.73
79014;DHT22;68419;44.714;37.756;2023-03-31T01:19:47;23.90;33.68
79014;DHT22;68419;44.714;37.756;2023-03-31T01:28:21;23.87;33.79
79014;DHT22;68419;44.714;37.756;2023-03-31T01:31:06;23.84;33.91
79014;DHT22;68419;44.714;37.756;2023-03-31T01:46:35;23.77;34.02
79014;DHT22;68419;44.714;37.756;2023-03-31T01:49:21;23.80;33.94
79014;DHT22;68419;44.714;37.756;2023-03-31T01:50:27;23.79;33.96
79014;DHT22;68419;44.714;37.756;2023-03-31T01:51:34;23.77;33.96
79014;DHT22;68419;44.714;37.756;2023-03-31T01:52:46;23.76;34.01
79014;DHT22;68419;44.714;37.756;2023-03-31T01:53:57;23.75;33.99
79014;DHT22;68419;44.714;37.756;2023-03-31T01:55:12;23.76;33.99
79014;DHT22;68419;44.714;37.756;2023-03-31T01:56:27;23.75;33.99
79014;DHT22;68419;44.714;37.756;2023-03-31T01:57:40;23.76;33.97
79014;DHT22;68419;44.714;37.756;2023-03-31T01:59:06;23.76;33.97
79014;DHT22;68419;44.714;37.756;2023-03-31T02:00:13;23.76;33.93
79014;DHT22;68419;44.714;37.756;2023-03-31T02:01:41;23.77;33.92
79014;DHT22;68419;44.714;37.756;2023-03-31T02:02:52;23.77;33.88
79014;DHT22;68419;44.714;37.756;2023-03-31T02:04:02;23.76;33.89
79014;DHT22;68419;44.714;37.756;2023-03-31T02:05:13;23.75;33.92
79014;DHT22;68419;44.714;37.756;2023-03-31T02:06:21;23.76;33.92
79014;DHT22;68419;44.714;37.756;2023-03-31T02:07:31;23.76;33.93
79014;DHT22;68419;44.714;37.756;2023-03-31T02:08:40;23.79;33.92
79014;DHT22;68419;44.714;37.756;2023-03-31T02:09:50;23.76;33.89
79014;DHT22;68419;44.714;37.756;2023-03-31T02:10:54;23.79;33.89
79014;DHT22;68419;44.714;37.756;2023-03-31T02:11:56;23.80;33.85
79014;DHT22;68419;44.714;37.756;2023-03-31T02:13:00;23.79;33.83
79014;DHT22;68419;44.714;37.756;2023-03-31T02:14:03;23.80;33.82
79014;DHT22;68419;44.714;37.756;2023-03-31T02:15:10;23.84;33.76
79014;DHT22;68419;44.714;37.756;2023-03-31T02:16:19;23.83;33.78
79014;DHT22;68419;44.714;37.756;2023-03-31T02:17:25;23.81;33.82
79014;DHT22;68419;44.714;37.756;2023-03-31T02:18:33;23.81;33.79
79014;DHT22;68419;44.714;37.756;2023-03-31T02:19:39;23.83;33.79
79014;DHT22;68419;44.714;37.756;2023-03-31T02:20:42;23.81;33.76
79014;DHT22;68419;44.714;37.756;2023-03-31T02:21:47;23.82;33.76
79014;DHT22;68419;44.714;37.756;2023-03-31T02:22:53;23.81;33.80
79014;DHT22;68419;44.714;37.756;2023-03-31T02:23:56;23.83;33.76
79014;DHT22;68419;44.714;37.756;2023-03-31T02:25:00;23.82;33.75
79014;DHT22;68419;44.714;37.756;2023-03-31T02:26:10;23.82;33.72
79014;DHT22;68419;44.714;37.756;2023-03-31T02:27:28;23.83;33.75
79014;DHT22;68419;44.714;37.756;2023-03-31T02:28:32;23.84;33.74
79014;DHT22;68419;44.714;37.756;2023-03-31T02:29:34;23.84;33.73
79014;DHT22;68419;44.714;37.756;2023-03-31T02:30:45;23.84;33.73
79014;DHT22;68419;44.714;37.756;2023-03-31T02:31:55;23.82;33.72
79014;DHT22;68419;44.714;37.756;2023-03-31T02:32:58;23.81;33.76
79014;DHT22;68419;44.714;37.756;2023-03-31T02:34:00;23.82;33.73
79014;DHT22;68419;44.714;37.756;2023-03-31T02:35:02;23.82;33.70
79014;DHT22;68419;44.714;37.756;2023-03-31T02:36:04;23.83;33.73
79014;DHT22;68419;44.714;37.756;2023-03-31T02:37:06;23.82;33.72
79014;DHT22;68419;44.714;37.756;2023-03-31T02:38:08;23.81;33.76
79014;DHT22;68419;44.714;37.756;2023-03-31T02:39:15;23.82;33.72
79014;DHT22;68419;44.714;37.756;2023-03-31T02:40:20;23.83;33.67
79014;DHT22;68419;44.714;37.756;2023-03-31T02:41:22;23.85;33.63
79014;DHT22;68419;44.714;37.756;2023-03-31T02:42:24;23.84;33.67
79014;DHT22;68419;44.714;37.756;2023-03-31T02:43:26;23.86;33.63
79014;DHT22;68419;44.714;37.756;2023-03-31T02:44:28;23.86;33.61
79014;DHT22;68419;44.714;37.756;2023-03-31T02:45:49;23.85;33.59
79014;DHT22;68419;44.714;37.756;2023-03-31T02:46:51;23.84;33.60
79014;DHT22;68419;44.714;37.756;2023-03-31T02:47:54;23.86;33.60
79014;DHT22;68419;44.714;37.756;2023-03-31T02:48:57;23.84;33.61
79014;DHT22;68419;44.714;37.756;2023-03-31T02:50:02;23.85;33.61
79014;DHT22;68419;44.714;37.756;2023-03-31T02:53:42;23.83;33.67
79014;DHT22;68419;44.714;37.756;2023-03-31T02:55:28;23.87;33.64
79014;DHT22;68419;44.714;37.756;2023-03-31T02:58:19;23.85;33.63
79014;DHT22;68419;44.714;37.756;2023-03-31T03:03:57;23.80;33.80
79014;DHT22;68419;44.714;37.756;2023-03-31T03:11:11;23.75;33.83
79014;DHT22;68419;44.714;37.756;2023-03-31T03:14:10;23.73;33.87
79014;DHT22;68419;44.714;37.756;2023-03-31T03:15:45;23.72;33.88
79014;DHT22;68419;44.714;37.756;2023-03-31T03:16:54;23.73;33.86
79014;DHT22;68419;44.714;37.756;2023-03-31T03:17:58;23.74;33.83
79014;DHT22;68419;44.714;37.756;2023-03-31T03:19:02;23.74;33.85
79014;DHT22;68419;44.714;37.756;2023-03-31T03:20:06;23.75;33.81
79014;DHT22;68419;44.714;37.756;2023-03-31T03:21:10;23.74;33.84
79014;DHT22;68419;44.714;37.756;2023-03-31T03:22:12;23.72;33.87
79014;DHT22;68419;44.714;37.756;2023-03-31T03:23:14;23.72;33.91
79014;DHT22;68419;44.714;37.756;2023-03-31T03:24:16;23.73;33.86
79014;DHT22;68419;44.714;37.756;2023-03-31T03:25:18;23.72;33.88
79014;DHT22;68419;44.714;37.756;2023-03-31T03:26:21;23.75;33.85
79014;DHT22;68419;44.714;37.756;2023-03-31T03:27:23;23.73;33.83
79014;DHT22;68419;44.714;37.756;2023-03-31T03:28:25;23.74;33.83
79014;DHT22;68419;44.714;37.756;2023-03-31T03:29:26;23.76;33.78
79014;DHT22;68419;44.714;37.756;2023-03-31T03:30:28;23.75;33.77
79014;DHT22;68419;44.714;37.756;2023-03-31T03:31:29;23.76;33.82
79014;DHT22;68419;44.714;37.756;2023-03-31T03:32:31;23.75;33.84
79014;DHT22;68419;44.714;37.756;2023-03-31T03:33:33;23.72;33.86
79014;DHT22;68419;44.714;37.756;2023-03-31T03:34:35;23.72;33.99
79014;DHT22;68419;44.714;37.756;2023-03-31T03:35:36;23.73;34.12
79014;DHT22;68419;44.714;37.756;2023-03-31T03:36:38;23.72;34.23
79014;DHT22;68419;44.714;37.756;2023-03-31T03:37:39;23.71;34.31
79014;DHT22;68419;44.714;37.756;2023-03-31T03:38:41;23.71;34.70
79014;DHT22;68419;44.714;37.756;2023-03-31T03:39:42;23.70;34.89
79014;DHT22;68419;44.714;37.756;2023-03-31T03:40:44;23.71;35.09
79014;DHT22;68419;44.714;37.756;2023-03-31T03:41:45;23.71;35.40
79014;DHT22;68419;44.714;37.756;2023-03-31T03:42:46;23.71;35.73
79014;DHT22;68419;44.714;37.756;2023-03-31T03:43:48;23.71;36.04
79014;DHT22;68419;44.714;37.756;2023-03-31T03:44:49;23.72;36.11
79014;DHT22;68419;44.714;37.756;2023-03-31T03:45:51;23.73;36.34
79014;DHT22;68419;44.714;37.756;2023-03-31T03:46:52;23.74;36.40
79014;DHT22;68419;44.714;37.756;2023-03-31T03:47:54;23.72;36.55
79014;DHT22;68419;44.714;37.756;2023-03-31T03:48:55;23.72;36.64
79014;DHT22;68419;44.714;37.756;2023-03-31T03:49:57;23.73;36.62
79014;DHT22;68419;44.714;37.756;2023-03-31T03:50:59;23.73;36.72
79014;DHT22;68419;44.714;37.756;2023-03-31T03:52:01;23.75;36.72
79014;DHT22;68419;44.714;37.756;2023-03-31T03:53:03;23.76;36.76
79014;DHT22;68419;44.714;37.756;2023-03-31T03:54:04;23.76;36.53
79014;DHT22;68419;44.714;37.756;2023-03-31T03:55:06;23.76;36.59
79014;DHT22;68419;44.714;37.756;2023-03-31T03:56:08;23.77;36.52
79014;DHT22;68419;44.714;37.756;2023-03-31T03:57:09;23.77;36.69
79014;DHT22;68419;44.714;37.756;2023-03-31T03:58:11;23.80;36.69
79014;DHT22;68419;44.714;37.756;2023-03-31T03:59:13;23.79;36.81
79014;DHT22;68419;44.714;37.756;2023-03-31T04:00:14;23.77;36.86
79014;DHT22;68419;44.714;37.756;2023-03-31T04:01:17;23.79;36.90
79014;DHT22;68419;44.714;37.756;2023-03-31T04:02:19;23.80;36.83
79014;DHT22;68419;44.714;37.756;2023-03-31T04:03:20;23.81;36.82
79014;DHT22;68419;44.714;37.756;2023-03-31T04:04:22;23.81;36.68
79014;DHT22;68419;44.714;37.756;2023-03-31T04:05:24;23.84;36.76
79014;DHT22;68419;44.714;37.756;2023-03-31T04:06:26;23.85;36.59
79014;DHT22;68419;44.714;37.756;2023-03-31T04:07:27;23.85;36.47
79014;DHT22;68419;44.714;37.756;2023-03-31T04:08:29;23.85;36.50
79014;DHT22;68419;44.714;37.756;2023-03-31T04:09:30;23.85;36.44
79014;DHT22;68419;44.714;37.756;2023-03-31T04:10:32;23.86;36.52
79014;DHT22;68419;44.714;37.756;2023-03-31T04:11:34;23.86;36.43
79014;DHT22;68419;44.714;37.756;2023-03-31T04:12:36;23.86;36.43
79014;DHT22;68419;44.714;37.756;2023-03-31T04:13:37;23.86;36.53
79014;DHT22;68419;44.714;37.756;2023-03-31T04:14:39;23.85;36.65
79014;DHT22;68419;44.714;37.756;2023-03-31T04:15:41;23.84;36.83
79014;DHT22;68419;44.714;37.756;2023-03-31T04:16:43;23.82;37.10
79014;DHT22;68419;44.714;37.756;2023-03-31T04:17:46;23.81;37.16
79014;DHT22;68419;44.714;37.756;2023-03-31T04:18:52;23.85;37.02
79014;DHT22;68419;44.714;37.756;2023-03-31T04:19:58;23.85;36.80
79014;DHT22;68419;44.714;37.756;2023-03-31T04:21:02;23.87;36.56
79014;DHT22;68419;44.714;37.756;2023-03-31T04:22:04;23.89;36.27
79014;DHT22;68419;44.714;37.756;2023-03-31T04:23:05;23.90;36.08
79014;DHT22;68419;44.714;37.756;2023-03-31T04:24:11;23.92;35.98
79014;DHT22;68419;44.714;37.756;2023-03-31T04:25:16;23.95;35.87
79014;DHT22;68419;44.714;37.756;2023-03-31T04:26:18;23.96;35.76
79014;DHT22;68419;44.714;37.756;2023-03-31T04:27:26;23.94;35.60
79014;DHT22;68419;44.714;37.756;2023-03-31T04:28:28;23.95;35.51
79014;DHT22;68419;44.714;37.756;2023-03-31T04:29:34;23.94;35.40
79014;DHT22;68419;44.714;37.756;2023-03-31T04:30:37;23.92;35.42
79014;DHT22;68419;44.714;37.756;2023-03-31T04:31:40;23.94;35.31
79014;DHT22;68419;44.714;37.756;2023-03-31T04:32:44;23.92;35.24
79014;DHT22;68419;44.714;37.756;2023-03-31T04:33:46;23.91;35.16
79014;DHT22;68419;44.714;37.756;2023-03-31T04:34:50;23.91;35.17
79014;DHT22;68419;44.714;37.756;2023-03-31T04:35:52;23.92;35.05
79014;DHT22;68419;44.714;37.756;2023-03-31T04:36:54;23.94;34.99
79014;DHT22;68419;44.714;37.756;2023-03-31T04:37:56;23.92;34.98
79014;DHT22;68419;44.714;37.756;2023-03-31T04:39:02;23.92;34.94
79014;DHT22;68419;44.714;37.756;2023-03-31T04:40:04;23.92;34.88
79014;DHT22;68419;44.714;37.756;2023-03-31T04:41:10;23.91;34.86
79014;DHT22;68419;44.714;37.756;2023-03-31T04:42:12;23.89;34.83
79014;DHT22;68419;44.714;37.756;2023-03-31T04:43:14;23.90;34.81
79014;DHT22;68419;44.714;37.756;2023-03-31T04:44:16;23.90;34.80
79014;DHT22;68419;44.714;37.756;2023-03-31T04:45:17;23.89;34.78
79014;DHT22;68419;44.714;37.756;2023-03-31T04:46:19;23.87;34.79
79014;DHT22;68419;44.714;37.756;2023-03-31T04:47:21;23.87;34.75
79014;DHT22;68419;44.714;37.756;2023-03-31T04:48:23;23.88;34.72
79014;DHT22;68419;44.714;37.756;2023-03-31T04:49:24;23.89;34.69
79014;DHT22;68419;44.714;37.756;2023-03-31T04:50:26;23.90;34.66
79014;DHT22;68419;44.714;37.756;2023-03-31T04:51:28;23.89;34.63
79014;DHT22;68419;44.714;37.756;2023-03-31T04:52:29;23.88;34.64
79014;DHT22;68419;44.714;37.756;2023-03-31T04:53:31;23.89;34.62
79014;DHT22;68419;44.714;37.756;2023-03-31T04:54:32;23.89;34.57
79014;DHT22;68419;44.714;37.756;2023-03-31T04:55:34;23.92;34.47
79014;DHT22;68419;44.714;37.756;2023-03-31T04:56:36;23.95;34.44
79014;DHT22;68419;44.714;37.756;2023-03-31T04:57:37;23.92;34.42
79014;DHT22;68419;44.714;37.756;2023-03-31T04:58:39;23.92;34.43
79014;DHT22;68419;44.714;37.756;2023-03-31T04:59:40;23.92;34.42
79014;DHT22;68419;44.714;37.756;2023-03-31T05:00:41;23.90;34.42
79014;DHT22;68419;44.714;37.756;2023-03-31T05:01:43;23.89;34.41
79014;DHT22;68419;44.714;37.756;2023-03-31T05:02:45;23.92;34.37
79014;DHT22;68419;44.714;37.756;2023-03-31T05:03:47;23.91;34.36
79014;DHT22;68419;44.714;37.756;2023-03-31T05:04:49;23.90;34.34
79014;DHT22;68419;44.714;37.756;2023-03-31T05:05:51;23.91;34.34
79014;DHT22;68419;44.714;37.756;2023-03-31T05:06:52;23.91;34.29
79014;DHT22;68419;44.714;37.756;2023-03-31T05:07:54;23.90;34.31
79014;DHT22;68419;44.714;37.756;2023-03-31T05:08:56;23.91;34.31
79014;DHT22;68419;44.714;37.756;2023-03-31T05:09:57;23.90;34.28
79014;DHT22;68419;44.714;37.756;2023-03-31T05:10:59;23.89;34.25
79014;DHT22;68419;44.714;37.756;2023-03-31T05:12:00;23.90;34.27
79014;DHT22;68419;44.714;37.756;2023-03-31T05:13:02;23.88;34.28
79014;DHT22;68419;44.714;37.756;2023-03-31T05:14:03;23.90;34.24
79014;DHT22;68419;44.714;37.756;2023-03-31T05:15:06;23.91;34.19
79014;DHT22;68419;44.714;37.756;2023-03-31T05:16:09;23.91;34.18
79014;DHT22;68419;44.714;37.756;2023-03-31T05:17:12;23.90;34.15
79014;DHT22;68419;44.714;37.756;2023-03-31T05:18:13;23.90;34.15
79014;DHT22;68419;44.714;37.756;2023-03-31T05:19:14;23.89;34.19
79014;DHT22;68419;44.714;37.756;2023-03-31T05:20:18;23.89;34.16
79014;DHT22;68419;44.714;37.756;2023-03-31T05:21:20;23.89;34.13
79014;DHT22;68419;44.714;37.756;2023-03-31T05:22:22;23.89;34.16
79014;DHT22;68419;44.714;37.756;2023-03-31T05:23:23;23.88;34.17
79014;DHT22;68419;44.714;37.756;2023-03-31T05:24:24;23.88;34.16
79014;DHT22;68419;44.714;37.756;2023-03-31T05:25:28;23.88;34.15
79014;DHT22;68419;44.714;37.756;2023-03-31T05:26:32;23.94;34.05
79014;DHT22;68419;44.714;37.756;2023-03-31T05:27:34;23.95;34.00
79014;DHT22;68419;44.714;37.756;2023-03-31T05:28:36;23.94;33.99
79014;DHT22;68419;44.714;37.756;2023-03-31T05:29:38;23.91;34.04
79014;DHT22;68419;44.714;37.756;2023-03-31T05:30:39;23.89;34.08
79014;DHT22;68419;44.714;37.756;2023-03-31T05:31:41;23.87;34.10
79014;DHT22;68419;44.714;37.756;2023-03-31T05:32:43;23.87;34.10
79014;DHT22;68419;44.714;37.756;2023-03-31T05:33:44;23.89;34.05
79014;DHT22;68419;44.714;37.756;2023-03-31T05:34:46;23.91;34.02
79014;DHT22;68419;44.714;37.756;2023-03-31T05:35:48;23.89;34.01
79014;DHT22;68419;44.714;37.756;2023-03-31T05:36:49;23.92;33.99
79014;DHT22;68419;44.714;37.756;2023-03-31T05:37:53;23.91;33.99
79014;DHT22;68419;44.714;37.756;2023-03-31T05:38:55;23.89;34.02
79014;DHT22;68419;44.714;37.756;2023-03-31T05:39:56;23.87;34.05
79014;DHT22;68419;44.714;37.756;2023-03-31T05:40:58;23.87;34.05
79014;DHT22;68419;44.714;37.756;2023-03-31T05:41:59;23.88;34.00
79014;DHT22;68419;44.714;37.756;2023-03-31T05:43:00;23.88;34.03
79014;DHT22;68419;44.714;37.756;2023-03-31T05:44:02;23.86;34.06
79014;DHT22;68419;44.714;37.756;2023-03-31T05:45:04;23.85;34.08
79014;DHT22;68419;44.714;37.756;2023-03-31T05:46:05;23.85;34.10
79014;DHT22;68419;44.714;37.756;2023-03-31T05:47:07;23.83;34.13
79014;DHT22;68419;44.714;37.756;2023-03-31T05:48:08;23.81;34.15
79014;DHT22;68419;44.714;37.756;2023-03-31T05:49:10;23.83;34.13
79014;DHT22;68419;44.714;37.756;2023-03-31T05:50:11;23.83;34.11
79014;DHT22;68419;44.714;37.756;2023-03-31T05:51:13;23.81;34.14
79014;DHT22;68419;44.714;37.756;2023-03-31T05:52:14;23.81;34.16
79014;DHT22;68419;44.714;37.756;2023-03-31T05:53:16;23.83;34.12
79014;DHT22;68419;44.714;37.756;2023-03-31T05:54:18;23.84;34.09
79014;DHT22;68419;44.714;37.756;2023-03-31T05:55:19;23.85;34.08
79014;DHT22;68419;44.714;37.756;2023-03-31T05:56:20;23.84;34.06
79014;DHT22;68419;44.714;37.756;2023-03-31T05:57:22;23.84;34.05
79014;DHT22;68419;44.714;37.756;2023-03-31T05:58:23;23.84;34.08
79014;DHT22;68419;44.714;37.756;2023-03-31T05:59:25;23.83;34.08
79014;DHT22;68419;44.714;37.756;2023-03-31T06:00:26;23.82;34.10
79014;DHT22;68419;44.714;37.756;2023-03-31T06:01:28;23.84;34.04
79014;DHT22;68419;44.714;37.756;2023-03-31T06:02:29;23.85;34.02
79014;DHT22;68419;44.714;37.756;2023-03-31T06:03:35;23.84;34.01
79014;DHT22;68419;44.714;37.756;2023-03-31T06:04:37;23.86;33.97
79014;DHT22;68419;44.714;37.756;2023-03-31T06:05:38;23.85;34.00
79014;DHT22;68419;44.714;37.756;2023-03-31T06:06:41;23.85;33.99
79014;DHT22;68419;44.714;37.756;2023-03-31T06:07:44;23.83;34.03
79014;DHT22;68419;44.714;37.756;2023-03-31T06:08:46;23.81;34.08
79014;DHT22;68419;44.714;37.756;2023-03-31T06:09:47;23.79;34.11
79014;DHT22;68419;44.714;37.756;2023-03-31T06:10:49;23.77;34.13
79014;DHT22;68419;44.714;37.756;2023-03-31T06:11:51;23.79;34.12
79014;DHT22;68419;44.714;37.756;2023-03-31T06:12:52;23.79;34.09
79014;DHT22;68419;44.714;37.756;2023-03-31T06:13:53;23.81;34.04
79014;DHT22;68419;44.714;37.756;2023-03-31T06:14:55;23.84;34.00
79014;DHT22;68419;44.714;37.756;2023-03-31T06:15:58;23.83;33.97
79014;DHT22;68419;44.714;37.756;2023-03-31T06:17:00;23.84;33.96
79014;DHT22;68419;44.714;37.756;2023-03-31T06:18:01;23.82;33.99
79014;DHT22;68419;44.714;37.756;2023-03-31T06:19:03;23.79;34.03
79014;DHT22;68419;44.714;37.756;2023-03-31T06:20:04;23.80;34.05
79014;DHT22;68419;44.714;37.756;2023-03-31T06:21:08;23.81;34.02
79014;DHT22;68419;44.714;37.756;2023-03-31T06:22:11;23.84;33.96
79014;DHT22;68419;44.714;37.756;2023-03-31T06:23:13;23.85;33.95
79014;DHT22;68419;44.714;37.756;2023-03-31T06:24:14;23.83;33.95
79014;DHT22;68419;44.714;37.756;2023-03-31T06:25:16;23.81;33.99
79014;DHT22;68419;44.714;37.756;2023-03-31T06:26:18;23.81;33.99
79014;DHT22;68419;44.714;37.756;2023-03-31T06:27:19;23.80;34.03
79014;DHT22;68419;44.714;37.756;2023-03-31T06:28:21;23.80;34.02
79014;DHT22;68419;44.714;37.756;2023-03-31T06:29:22;23.81;34.00
79014;DHT22;68419;44.714;37.756;2023-03-31T06:30:23;23.82;33.95
79014;DHT22;68419;44.714;37.756;2023-03-31T06:31:25;23.82;33.94
79014;DHT22;68419;44.714;37.756;2023-03-31T06:32:27;23.83;33.93
79014;DHT22;68419;44.714;37.756;2023-03-31T06:33:28;23.82;33.95
79014;DHT22;68419;44.714;37.756;2023-03-31T06:34:30;23.81;33.98
79014;DHT22;68419;44.714;37.756;2023-03-31T06:35:31;23.80;34.00
79014;DHT22;68419;44.714;37.756;2023-03-31T06:36:33;23.80;34.01
79014;DHT22;68419;44.714;37.756;2023-03-31T06:37:34;23.80;33.99
79014;DHT22;68419;44.714;37.756;2023-03-31T06:38:36;23.81;33.98
79014;DHT22;68419;44.714;37.756;2023-03-31T06:39:41;23.83;33.93
79014;DHT22;68419;44.714;37.756;2023-03-31T06:40:44;23.84;33.92
79014;DHT22;68419;44.714;37.756;2023-03-31T06:41:46;23.84;33.87
79014;DHT22;68419;44.714;37.756;2023-03-31T06:42:54;23.85;33.86
79014;DHT22;68419;44.714;37.756;2023-03-31T06:43:56;23.86;33.84
79014;DHT22;68419;44.714;37.756;2023-03-31T06:44:57;23.86;33.84
79014;DHT22;68419;44.714;37.756;2023-03-31T06:45:59;23.84;33.87
79014;DHT22;68419;44.714;37.756;2023-03-31T06:47:00;23.84;33.86
79014;DHT22;68419;44.714;37.756;2023-03-31T06:48:02;23.81;33.89
79014;DHT22;68419;44.714;37.756;2023-03-31T06:49:03;23.80;33.93
79014;DHT22;68419;44.714;37.756;2023-03-31T06:50:05;23.81;33.95
79014;DHT22;68419;44.714;37.756;2023-03-31T06:51:07;23.82;33.91
79014;DHT22;68419;44.714;37.756;2023-03-31T06:52:09;23.83;33.89
79014;DHT22;68419;44.714;37.756;2023-03-31T06:53:10;23.85;33.84
79014;DHT22;68419;44.714;37.756;2023-03-31T06:54:12;23.85;33.86
79014;DHT22;68419;44.714;37.756;2023-03-31T06:55:13;23.83;33.89
79014;DHT22;68419;44.714;37.756;2023-03-31T06:56:16;23.85;33.85
79014;DHT22;68419;44.714;37.756;2023-03-31T06:57:17;23.84;33.83
79014;DHT22;68419;44.714;37.756;2023-03-31T06:58:18;23.84;33.83
79014;DHT22;68419;44.714;37.756;2023-03-31T06:59:20;23.84;33.83
79014;DHT22;68419;44.714;37.756;2023-03-31T07:00:21;23.84;33.82
79014;DHT22;68419;44.714;37.756;2023-03-31T07:01:22;23.83;33.83
79014;DHT22;68419;44.714;37.756;2023-03-31T07:02:24;23.83;33.83
79014;DHT22;68419;44.714;37.756;2023-03-31T07:03:26;23.83;33.83
79014;DHT22;68419;44.714;37.756;2023-03-31T07:04:29;23.83;33.86
79014;DHT22;68419;44.714;37.756;2023-03-31T07:05:31;23.82;33.89
79014;DHT22;68419;44.714;37.756;2023-03-31T07:06:33;23.81;33.89
79014;DHT22;68419;44.714;37.756;2023-03-31T07:07:34;23.81;33.92
79014;DHT22;68419;44.714;37.756;2023-03-31T07:08:36;23.81;33.93
79014;DHT22;68419;44.714;37.756;2023-03-31T07:09:37;23.80;33.96
79014;DHT22;68419;44.714;37.756;2023-03-31T07:10:38;23.79;33.97
79014;DHT22;68419;44.714;37.756;2023-03-31T07:11:40;23.77;34.00
79014;DHT22;68419;44.714;37.756;2023-03-31T07:12:41;23.77;34.00
79014;DHT22;68419;44.714;37.756;2023-03-31T07:13:42;23.76;34.05
79014;DHT22;68419;44.714;37.756;2023-03-31T07:14:44;23.77;34.03
79014;DHT22;68419;44.714;37.756;2023-03-31T07:15:47;23.79;33.99
79014;DHT22;68419;44.714;37.756;2023-03-31T07:16:48;23.79;34.01
79014;DHT22;68419;44.714;37.756;2023-03-31T07:17:50;23.76;34.04
79014;DHT22;68419;44.714;37.756;2023-03-31T07:18:53;23.77;34.02